createdAt,value
2023-05-19T00:00:08.365Z,12.62
2023-05-19T00:01:08.339Z,12.69
2023-05-19T00:02:08.354Z,12.63
2023-05-19T00:03:08.396Z,12.66
2023-05-19T00:04:08.343Z,12.76
2023-05-19T00:05:08.282Z,12.58
2023-05-19T00:06:08.319Z,12.55
2023-05-19T00:07:08.261Z,12.59
2023-05-19T00:08:08.254Z,12.62
2023-05-19T00:09:08.262Z,12.69
2023-05-19T00:10:08.260Z,12.68
2023-05-19T00:11:08.203Z,12.68
2023-05-19T00:12:08.195Z,12.65
2023-05-19T00:13:08.203Z,12.65
2023-05-19T00:14:08.220Z,12.58
2023-05-19T00:15:08.153Z,12.55
2023-05-19T00:16:08.207Z,12.41
2023-05-19T00:17:08.125Z,12.43
2023-05-19T00:18:08.183Z,12.61
2023-05-19T00:19:08.120Z,12.54
2023-05-19T00:20:08.089Z,12.53
2023-05-19T00:21:08.076Z,12.59
2023-05-19T00:22:08.071Z,12.46
2023-05-19T00:23:08.107Z,12.51
2023-05-19T00:24:08.053Z,12.53
2023-05-19T00:25:08.021Z,12.53
2023-05-19T00:26:08.016Z,12.55
2023-05-19T00:27:08.011Z,12.50
2023-05-19T00:28:07.983Z,12.50
2023-05-19T00:29:07.974Z,12.44
2023-05-19T00:30:07.973Z,12.47
2023-05-19T00:31:07.933Z,12.30
2023-05-19T00:32:08.081Z,12.35
2023-05-19T00:33:08.012Z,12.32
2023-05-19T00:34:07.940Z,12.30
2023-05-19T00:35:07.894Z,12.40
2023-05-19T00:36:07.907Z,12.29
2023-05-19T00:37:07.913Z,12.21
2023-05-19T00:38:07.856Z,12.26
2023-05-19T00:39:07.844Z,12.28
2023-05-19T00:40:07.850Z,12.23
2023-05-19T00:41:07.822Z,12.25
2023-05-19T00:42:07.831Z,12.22
2023-05-19T00:43:07.789Z,12.18
2023-05-19T00:44:07.769Z,12.11
2023-05-19T00:45:07.778Z,12.10
2023-05-19T00:46:07.835Z,12.10
2023-05-19T00:47:07.822Z,12.07
2023-05-19T00:48:07.797Z,11.99
2023-05-19T00:49:07.715Z,12.14
2023-05-19T00:50:07.697Z,12.10
2023-05-19T00:51:07.727Z,12.15
2023-05-19T00:52:07.686Z,12.22
2023-05-19T00:53:07.664Z,12.13
2023-05-19T00:54:07.639Z,12.28
2023-05-19T00:55:07.642Z,12.18
2023-05-19T00:56:07.639Z,12.13
2023-05-19T00:57:07.610Z,12.04
2023-05-19T00:58:07.591Z,12.10
2023-05-19T00:59:07.582Z,12.11
2023-05-19T01:00:07.569Z,12.11
2023-05-19T01:01:07.664Z,12.07
2023-05-19T01:02:07.536Z,12.07
2023-05-19T01:03:07.606Z,12.05
2023-05-19T01:04:07.632Z,12.04
2023-05-19T01:05:07.533Z,12.00
2023-05-19T01:06:07.590Z,11.97
2023-05-19T01:07:07.485Z,11.99
2023-05-19T01:08:07.454Z,11.99
2023-05-19T01:09:07.452Z,11.96
2023-05-19T01:10:07.447Z,12.03
2023-05-19T01:11:07.424Z,11.93
2023-05-19T01:12:07.411Z,11.91
2023-05-19T01:13:07.389Z,12.03
2023-05-19T01:14:07.380Z,11.96
2023-05-19T01:15:07.386Z,11.99
2023-05-19T01:16:07.378Z,11.99
2023-05-19T01:17:07.346Z,11.97
2023-05-19T01:18:07.471Z,11.95
2023-05-19T01:19:07.389Z,11.82
2023-05-19T01:20:07.320Z,11.85
2023-05-19T01:21:07.311Z,11.79
2023-05-19T01:22:07.300Z,11.79
2023-05-19T01:23:07.256Z,11.69
2023-05-19T01:24:07.247Z,11.70
2023-05-19T01:25:07.253Z,11.67
2023-05-19T01:26:07.259Z,11.74
2023-05-19T01:27:07.218Z,11.66
2023-05-19T01:28:07.203Z,11.61
2023-05-19T01:29:07.199Z,11.71
2023-05-19T01:30:07.173Z,11.76
2023-05-19T01:31:07.161Z,11.70
2023-05-19T01:32:07.276Z,11.64
2023-05-19T01:33:07.150Z,11.66
2023-05-19T01:34:07.137Z,11.66
2023-05-19T01:35:07.117Z,11.76
2023-05-19T01:36:07.089Z,11.73
2023-05-19T01:37:07.094Z,11.73
2023-05-19T01:38:07.063Z,11.73
2023-05-19T01:39:07.092Z,11.64
2023-05-19T01:40:07.062Z,11.66
2023-05-19T01:41:07.048Z,11.69
2023-05-19T01:42:07.013Z,11.67
2023-05-19T01:43:07.001Z,11.69
2023-05-19T01:44:06.994Z,11.49
2023-05-19T01:45:06.995Z,11.66
2023-05-19T01:46:06.988Z,11.61
2023-05-19T01:47:06.957Z,11.64
2023-05-19T01:48:09.896Z,11.62
2023-05-19T01:49:06.927Z,11.55
2023-05-19T01:50:06.903Z,11.52
2023-05-19T01:51:06.908Z,11.59
2023-05-19T01:52:06.874Z,11.56
2023-05-19T01:53:06.897Z,11.52
2023-05-19T01:54:06.878Z,11.59
2023-05-19T01:55:06.868Z,11.59
2023-05-19T01:56:06.834Z,11.64
2023-05-19T01:57:06.830Z,11.61
2023-05-19T01:58:06.810Z,11.64
2023-05-19T01:59:06.826Z,11.51
2023-05-19T02:00:06.778Z,11.54
2023-05-19T02:01:06.815Z,11.49
2023-05-19T02:02:06.760Z,11.51
2023-05-19T02:03:06.790Z,11.41
2023-05-19T02:04:06.822Z,11.31
2023-05-19T02:05:06.707Z,11.43
2023-05-19T02:06:06.701Z,11.48
2023-05-19T02:07:06.718Z,11.52
2023-05-19T02:08:06.671Z,11.62
2023-05-19T02:09:06.671Z,11.58
2023-05-19T02:10:06.646Z,11.49
2023-05-19T02:11:06.647Z,11.45
2023-05-19T02:12:06.641Z,11.37
2023-05-19T02:13:06.649Z,11.28
2023-05-19T02:14:06.604Z,11.22
2023-05-19T02:15:06.621Z,11.25
2023-05-19T02:16:06.658Z,11.38
2023-05-19T02:17:06.599Z,11.34
2023-05-19T02:18:06.630Z,11.34
2023-05-19T02:19:06.608Z,11.38
2023-05-19T02:20:06.524Z,11.46
2023-05-19T02:21:06.507Z,11.38
2023-05-19T02:22:06.511Z,11.48
2023-05-19T02:23:06.483Z,11.45
2023-05-19T02:24:06.459Z,11.49
2023-05-19T02:25:06.465Z,11.45
2023-05-19T02:26:06.467Z,11.31
2023-05-19T02:27:06.448Z,11.36
2023-05-19T02:28:06.406Z,11.41
2023-05-19T02:29:06.399Z,11.45
2023-05-19T02:30:06.379Z,11.38
2023-05-19T02:31:06.378Z,11.41
2023-05-19T02:32:06.398Z,11.36
2023-05-19T02:33:06.430Z,11.38
2023-05-19T02:34:06.334Z,11.27
2023-05-19T02:35:06.315Z,11.33
2023-05-19T02:36:06.318Z,11.15
2023-05-19T02:37:06.320Z,11.27
2023-05-19T02:38:06.286Z,11.23
2023-05-19T02:39:06.280Z,11.30
2023-05-19T02:40:06.248Z,11.13
2023-05-19T02:41:06.262Z,11.19
2023-05-19T02:42:06.245Z,11.23
2023-05-19T02:43:06.211Z,11.22
2023-05-19T02:44:06.202Z,11.27
2023-05-19T02:45:06.188Z,11.22
2023-05-19T02:46:06.245Z,11.16
2023-05-19T02:47:06.168Z,11.16
2023-05-19T02:48:06.203Z,11.16
2023-05-19T02:49:06.137Z,11.11
2023-05-19T02:50:06.147Z,11.12
2023-05-19T02:51:06.116Z,11.09
2023-05-19T02:52:06.101Z,11.09
2023-05-19T02:53:06.083Z,11.04
2023-05-19T02:54:06.074Z,11.09
2023-05-19T02:55:06.067Z,11.19
2023-05-19T02:56:06.041Z,11.16
2023-05-19T02:57:06.033Z,11.09
2023-05-19T02:58:06.010Z,11.08
2023-05-19T02:59:06.007Z,11.11
2023-05-19T03:00:06.034Z,11.13
2023-05-19T03:01:06.009Z,11.05
2023-05-19T03:02:06.054Z,11.15
2023-05-19T03:03:06.035Z,11.15
2023-05-19T03:04:06.003Z,11.09
2023-05-19T03:05:05.965Z,11.09
2023-05-19T03:06:05.852Z,11.18
2023-05-19T03:07:05.847Z,11.05
2023-05-19T03:08:05.834Z,11.09
2023-05-19T03:09:05.850Z,11.05
2023-05-19T03:10:05.800Z,10.98
2023-05-19T03:11:05.793Z,11.04
2023-05-19T03:12:05.771Z,11.03
2023-05-19T03:13:05.771Z,11.01
2023-05-19T03:14:05.771Z,11.04
2023-05-19T03:15:05.734Z,11.03
2023-05-19T03:16:05.736Z,10.94
2023-05-19T03:17:05.725Z,10.97
2023-05-19T03:18:05.731Z,10.90
2023-05-19T03:19:05.749Z,10.85
2023-05-19T03:20:05.683Z,10.94
2023-05-19T03:21:05.663Z,10.93
2023-05-19T03:22:05.649Z,10.86
2023-05-19T03:23:05.644Z,10.97
2023-05-19T03:24:05.646Z,10.94
2023-05-19T03:25:05.628Z,10.82
2023-05-19T03:26:05.593Z,10.85
2023-05-19T03:27:05.584Z,10.90
2023-05-19T03:28:05.568Z,10.85
2023-05-19T03:29:05.583Z,10.80
2023-05-19T03:30:06.701Z,10.78
2023-05-19T03:31:05.542Z,10.79
2023-05-19T03:32:05.539Z,10.79
2023-05-19T03:33:05.670Z,10.78
2023-05-19T03:34:05.499Z,10.87
2023-05-19T03:35:05.487Z,10.80
2023-05-19T03:36:05.474Z,10.87
2023-05-19T03:37:05.482Z,10.91
2023-05-19T03:38:05.467Z,10.93
2023-05-19T03:39:05.433Z,10.82
2023-05-19T03:40:05.427Z,10.78
2023-05-19T03:41:05.404Z,10.82
2023-05-19T03:42:05.386Z,10.94
2023-05-19T03:43:05.402Z,10.93
2023-05-19T03:44:05.364Z,10.80
2023-05-19T03:45:05.359Z,10.82
2023-05-19T03:46:05.362Z,10.73
2023-05-19T03:47:05.343Z,10.83
2023-05-19T03:48:05.356Z,10.79
2023-05-19T03:49:05.304Z,10.79
2023-05-19T03:50:05.292Z,10.78
2023-05-19T03:51:05.351Z,10.78
2023-05-19T03:52:05.260Z,10.73
2023-05-19T03:53:05.286Z,10.68
2023-05-19T03:54:05.237Z,10.73
2023-05-19T03:55:05.226Z,10.73
2023-05-19T03:56:05.204Z,10.67
2023-05-19T03:57:05.204Z,10.68
2023-05-19T03:58:05.193Z,10.62
2023-05-19T03:59:05.170Z,10.58
2023-05-19T04:00:05.202Z,10.75
2023-05-19T04:01:05.168Z,10.75
2023-05-19T04:02:05.556Z,10.79
2023-05-19T04:03:05.181Z,10.80
2023-05-19T04:04:05.162Z,10.82
2023-05-19T04:05:05.111Z,10.75
2023-05-19T04:06:05.084Z,10.80
2023-05-19T04:07:05.097Z,10.70
2023-05-19T04:08:05.088Z,10.67
2023-05-19T04:09:05.066Z,10.78
2023-05-19T04:10:05.045Z,10.73
2023-05-19T04:11:05.019Z,10.90
2023-05-19T04:12:05.025Z,10.93
2023-05-19T04:13:04.989Z,10.85
2023-05-19T04:14:04.975Z,10.87
2023-05-19T04:15:04.962Z,10.94
2023-05-19T04:16:05.022Z,10.98
2023-05-19T04:17:04.969Z,10.82
2023-05-19T04:18:04.928Z,10.91
2023-05-19T04:19:05.353Z,10.90
2023-05-19T04:20:04.895Z,10.98
2023-05-19T04:21:04.890Z,11.16
2023-05-19T04:22:04.870Z,11.15
2023-05-19T04:23:04.864Z,11.03
2023-05-19T04:24:04.888Z,11.04
2023-05-19T04:25:04.836Z,11.12
2023-05-19T04:26:04.819Z,10.94
2023-05-19T04:27:04.817Z,11.04
2023-05-19T04:28:04.808Z,11.01
2023-05-19T04:29:04.797Z,11.03
2023-05-19T04:30:04.769Z,11.18
2023-05-19T04:31:04.799Z,11.23
2023-05-19T04:32:04.736Z,11.27
2023-05-19T04:33:04.997Z,11.33
2023-05-19T04:34:04.715Z,11.18
2023-05-19T04:35:04.732Z,11.20
2023-05-19T04:36:04.714Z,11.45
2023-05-19T04:37:04.703Z,11.54
2023-05-19T04:38:04.675Z,11.40
2023-05-19T04:39:04.646Z,11.52
2023-05-19T04:40:04.669Z,11.52
2023-05-19T04:41:04.629Z,11.70
2023-05-19T04:42:04.686Z,11.61
2023-05-19T04:43:04.712Z,11.77
2023-05-19T04:44:04.647Z,11.69
2023-05-19T04:45:04.673Z,11.61
2023-05-19T04:46:04.563Z,11.67
2023-05-19T04:47:04.602Z,11.67
2023-05-19T04:48:04.559Z,11.58
2023-05-19T04:49:04.531Z,11.55
2023-05-19T04:50:04.525Z,11.51
2023-05-19T04:51:04.492Z,11.61
2023-05-19T04:52:04.495Z,11.85
2023-05-19T04:53:04.468Z,11.89
2023-05-19T04:54:04.453Z,11.91
2023-05-19T04:55:04.467Z,11.99
2023-05-19T04:56:04.429Z,11.88
2023-05-19T04:57:04.414Z,11.85
2023-05-19T04:58:04.411Z,11.84
2023-05-19T04:59:04.393Z,11.96
2023-05-19T05:00:04.404Z,12.07
2023-05-19T05:01:04.365Z,12.21
2023-05-19T05:02:04.399Z,12.26
2023-05-19T05:03:04.369Z,12.30
2023-05-19T05:04:04.413Z,12.43
2023-05-19T05:05:04.344Z,12.81
2023-05-19T05:06:04.292Z,13.17
2023-05-19T05:07:04.275Z,13.68
2023-05-19T05:08:04.271Z,14.26
2023-05-19T05:09:04.259Z,14.63
2023-05-19T05:10:04.291Z,15.10
2023-05-19T05:11:04.224Z,15.35
2023-05-19T05:12:04.219Z,15.81
2023-05-19T05:13:04.193Z,15.91
2023-05-19T05:14:04.199Z,15.99
2023-05-19T05:15:04.168Z,15.77
2023-05-19T05:16:04.196Z,15.68
2023-05-19T05:17:04.147Z,15.88
2023-05-19T05:18:04.184Z,15.91
2023-05-19T05:19:04.152Z,16.21
2023-05-19T05:20:04.111Z,16.14
2023-05-19T05:21:04.090Z,16.05
2023-05-19T05:22:04.078Z,16.03
2023-05-19T05:23:04.063Z,16.03
2023-05-19T05:24:04.066Z,16.21
2023-05-19T05:25:04.061Z,16.28
2023-05-19T05:26:04.028Z,16.22
2023-05-19T05:27:04.015Z,16.00
2023-05-19T05:28:04.001Z,15.90
2023-05-19T05:29:04.128Z,15.85
2023-05-19T05:30:03.978Z,16.02
2023-05-19T05:31:03.981Z,16.26
2023-05-19T05:32:03.996Z,16.25
2023-05-19T05:33:04.021Z,15.95
2023-05-19T05:34:03.943Z,16.08
2023-05-19T05:35:03.902Z,16.22
2023-05-19T05:36:03.902Z,16.00
2023-05-19T05:37:03.876Z,15.90
2023-05-19T05:38:03.899Z,15.83
2023-05-19T05:39:03.874Z,15.83
2023-05-19T05:40:03.864Z,15.68
2023-05-19T05:41:03.837Z,15.90
2023-05-19T05:42:03.817Z,16.00
2023-05-19T05:43:03.798Z,16.08
2023-05-19T05:44:03.811Z,15.85
2023-05-19T05:45:03.780Z,15.77
2023-05-19T05:46:03.809Z,15.76
2023-05-19T05:47:03.744Z,15.54
2023-05-19T05:48:03.812Z,15.36
2023-05-19T05:50:13.915Z,15.12
2023-05-19T05:51:14.866Z,15.30
2023-05-19T05:52:14.828Z,15.10
2023-05-19T05:53:14.833Z,14.83
2023-05-19T05:54:14.796Z,15.05
2023-05-19T05:55:14.789Z,14.97
2023-05-19T05:56:14.772Z,15.19
2023-05-19T05:57:14.767Z,15.08
2023-05-19T05:58:14.767Z,15.54
2023-05-19T05:59:15.760Z,15.52
2023-05-19T06:00:14.827Z,15.66
2023-05-19T06:01:14.714Z,15.78
2023-05-19T06:02:14.783Z,16.00
2023-05-19T06:03:14.786Z,15.95
2023-05-19T06:04:14.681Z,16.39
2023-05-19T06:05:14.725Z,16.29
2023-05-19T06:06:14.675Z,16.46
2023-05-19T06:07:14.661Z,16.80
2023-05-19T06:08:14.621Z,17.12
2023-05-19T06:09:14.610Z,17.17
2023-05-19T06:10:14.601Z,17.41
2023-05-19T06:11:14.578Z,17.59
2023-05-19T06:12:14.597Z,17.86
2023-05-19T06:13:14.552Z,17.66
2023-05-19T06:14:14.556Z,17.88
2023-05-19T06:15:14.542Z,17.91
2023-05-19T06:16:14.568Z,17.81
2023-05-19T06:17:14.512Z,17.97
2023-05-19T06:18:14.536Z,18.43
2023-05-19T06:19:14.535Z,18.42
2023-05-19T06:20:14.478Z,18.42
2023-05-19T06:21:14.472Z,18.20
2023-05-19T06:22:14.435Z,18.03
2023-05-19T06:23:14.424Z,17.94
2023-05-19T06:24:14.435Z,18.05
2023-05-19T06:25:14.417Z,18.13
2023-05-19T06:26:14.415Z,17.99
2023-05-19T06:27:14.375Z,18.13
2023-05-19T06:28:14.361Z,17.91
2023-05-19T06:29:14.342Z,17.81
2023-05-19T06:30:14.344Z,17.62
2023-05-19T06:31:14.384Z,17.81
2023-05-19T06:32:14.313Z,17.83
2023-05-19T06:33:14.295Z,18.03
2023-05-19T06:34:14.278Z,18.08
2023-05-19T06:35:14.261Z,17.96
2023-05-19T06:36:14.293Z,17.91
2023-05-19T06:37:14.236Z,17.84
2023-05-19T06:38:14.233Z,17.96
2023-05-19T06:39:14.221Z,17.76
2023-05-19T06:40:14.219Z,17.71
2023-05-19T06:41:14.201Z,17.81
2023-05-19T06:42:14.176Z,18.21
2023-05-19T06:43:14.167Z,18.45
2023-05-19T06:44:14.169Z,18.74
2023-05-19T06:45:14.157Z,18.82
2023-05-19T06:46:14.223Z,18.94
2023-05-19T06:47:14.181Z,18.68
2023-05-19T06:48:14.174Z,18.98
2023-05-19T06:49:14.077Z,19.19
2023-05-19T06:50:14.087Z,19.15
2023-05-19T06:51:14.053Z,19.52
2023-05-19T06:52:14.043Z,19.59
2023-05-19T06:53:14.046Z,19.45
2023-05-19T06:54:14.033Z,19.15
2023-05-19T06:55:13.989Z,19.05
2023-05-19T06:56:13.987Z,19.13
2023-05-19T06:57:13.998Z,18.88
2023-05-19T06:58:14.025Z,18.61
2023-05-19T06:59:13.962Z,18.86
2023-05-19T07:00:16.946Z,19.17
2023-05-19T07:01:13.920Z,18.86
2023-05-19T07:02:14.034Z,19.17
2023-05-19T07:03:14.019Z,19.01
2023-05-19T07:04:13.938Z,19.31
2023-05-19T07:05:13.867Z,19.42
2023-05-19T07:06:13.857Z,19.63
2023-05-19T07:07:14.100Z,19.72
2023-05-19T07:08:13.823Z,19.75
2023-05-19T07:09:13.837Z,19.94
2023-05-19T07:10:13.818Z,19.90
2023-05-19T07:11:13.781Z,19.71
2023-05-19T07:12:13.934Z,19.67
2023-05-19T07:13:14.109Z,19.50
2023-05-19T07:14:14.347Z,19.45
2023-05-19T07:15:13.740Z,18.97
2023-05-19T07:16:15.381Z,19.00
2023-05-19T07:17:13.711Z,18.71
2023-05-19T07:18:13.773Z,19.01
2023-05-19T07:19:13.758Z,19.01
2023-05-19T07:20:15.775Z,19.27
2023-05-19T07:21:15.164Z,19.07
2023-05-19T07:22:13.636Z,18.79
2023-05-19T07:23:15.455Z,18.79
2023-05-19T07:24:13.635Z,18.91
2023-05-19T07:25:13.600Z,18.98
2023-05-19T07:26:13.607Z,18.97
2023-05-19T07:27:13.572Z,19.41
2023-05-19T07:28:13.606Z,19.57
2023-05-19T07:29:13.563Z,19.35
2023-05-19T07:30:13.534Z,19.16
2023-05-19T07:31:13.516Z,18.64
2023-05-19T07:32:13.568Z,18.63
2023-05-19T07:33:13.628Z,19.20
2023-05-19T07:34:13.483Z,19.31
2023-05-19T07:35:13.483Z,19.30
2023-05-19T07:36:13.472Z,19.44
2023-05-19T07:37:13.441Z,19.13
2023-05-19T07:38:13.446Z,19.37
2023-05-19T07:39:13.444Z,19.52
2023-05-19T07:40:13.397Z,19.79
2023-05-19T07:41:13.395Z,19.74
2023-05-19T07:42:13.406Z,19.78
2023-05-19T07:43:13.381Z,19.64
2023-05-19T07:44:13.348Z,19.96
2023-05-19T07:45:13.321Z,19.97
2023-05-19T07:46:13.376Z,19.78
2023-05-19T07:47:13.327Z,19.94
2023-05-19T07:48:13.336Z,20.05
2023-05-19T07:49:13.277Z,20.39
2023-05-19T07:50:13.277Z,20.36
2023-05-19T07:51:13.255Z,20.15
2023-05-19T07:52:13.244Z,19.92
2023-05-19T07:53:13.230Z,20.26
2023-05-19T07:54:13.219Z,20.29
2023-05-19T07:55:13.228Z,20.53
2023-05-19T07:56:13.189Z,20.50
2023-05-19T07:57:13.178Z,20.42
2023-05-19T07:58:13.153Z,20.64
2023-05-19T07:59:13.188Z,20.63
2023-05-19T08:00:13.132Z,20.55
2023-05-19T08:01:13.130Z,20.08
2023-05-19T08:02:13.166Z,20.04
2023-05-19T08:03:13.268Z,19.84
2023-05-19T08:04:13.480Z,19.86
2023-05-19T08:05:13.070Z,19.59
2023-05-19T08:06:13.068Z,19.82
2023-05-19T08:07:13.034Z,20.02
2023-05-19T08:08:13.022Z,20.22
2023-05-19T08:09:13.022Z,20.33
2023-05-19T08:10:13.017Z,20.34
2023-05-19T08:11:12.994Z,20.60
2023-05-19T08:12:12.971Z,20.26
2023-05-19T08:13:12.964Z,20.65
2023-05-19T08:14:12.951Z,20.77
2023-05-19T08:15:13.028Z,20.36
2023-05-19T08:16:12.951Z,20.56
2023-05-19T08:17:12.895Z,20.95
2023-05-19T08:18:12.951Z,21.08
2023-05-19T08:19:12.907Z,21.03
2023-05-19T08:20:12.909Z,21.01
2023-05-19T08:21:12.857Z,21.19
2023-05-19T08:22:12.841Z,21.41
2023-05-19T08:23:12.820Z,21.58
2023-05-19T08:24:12.832Z,21.90
2023-05-19T08:25:12.813Z,21.82
2023-05-19T08:26:12.784Z,21.60
2023-05-19T08:27:12.768Z,21.45
2023-05-19T08:28:12.765Z,21.51
2023-05-19T08:29:12.766Z,21.75
2023-05-19T08:30:12.750Z,21.47
2023-05-19T08:31:12.801Z,21.03
2023-05-19T08:32:13.495Z,21.23
2023-05-19T08:33:12.723Z,21.43
2023-05-19T08:34:12.683Z,21.47
2023-05-19T08:35:12.660Z,21.53
2023-05-19T08:36:12.707Z,21.60
2023-05-19T08:37:12.652Z,21.81
2023-05-19T08:38:12.622Z,21.91
2023-05-19T08:39:12.629Z,22.06
2023-05-19T08:40:12.601Z,22.06
2023-05-19T08:41:12.585Z,21.62
2023-05-19T08:42:12.576Z,21.50
2023-05-19T08:43:12.578Z,21.32
2023-05-19T08:44:12.563Z,21.41
2023-05-19T08:45:12.535Z,21.22
2023-05-19T08:46:12.549Z,21.37
2023-05-19T08:47:12.535Z,21.34
2023-05-19T08:48:12.523Z,21.18
2023-05-19T08:49:12.477Z,20.88
2023-05-19T08:50:12.466Z,20.93
2023-05-19T08:51:12.468Z,21.14
2023-05-19T08:52:12.440Z,21.05
2023-05-19T08:53:24.653Z,21.29
2023-05-19T08:54:12.420Z,21.65
2023-05-19T08:55:12.393Z,21.88
2023-05-19T08:56:12.398Z,21.75
2023-05-19T08:57:12.368Z,21.53
2023-05-19T08:58:12.384Z,21.28
2023-05-19T08:59:12.342Z,21.44
2023-05-19T09:00:12.345Z,21.32
2023-05-19T09:01:12.326Z,21.78
2023-05-19T09:02:12.323Z,21.96
2023-05-19T09:04:12.307Z,21.66
2023-05-19T09:05:12.284Z,21.63
2023-05-19T09:06:12.254Z,21.73
2023-05-19T09:07:12.251Z,21.75
2023-05-19T09:08:12.217Z,21.82
2023-05-19T09:09:12.229Z,21.81
2023-05-19T09:10:12.230Z,21.66
2023-05-19T09:11:12.192Z,21.48
2023-05-19T09:12:12.174Z,21.10
2023-05-19T09:13:12.171Z,20.95
2023-05-19T09:14:12.172Z,21.20
2023-05-19T09:15:12.140Z,21.44
2023-05-19T09:16:12.149Z,21.53
2023-05-19T09:17:12.119Z,21.74
2023-05-19T09:18:12.164Z,21.65
2023-05-19T09:19:12.113Z,21.78
2023-05-19T09:20:12.070Z,22.11
2023-05-19T09:21:12.057Z,22.25
2023-05-19T09:22:12.044Z,22.56
2023-05-19T09:23:12.037Z,22.37
2023-05-19T09:24:12.015Z,22.16
2023-05-19T09:25:12.002Z,22.25
2023-05-19T09:26:12.022Z,21.30
2023-05-19T09:27:11.972Z,21.04
2023-05-19T09:28:11.962Z,20.98
2023-05-19T09:29:12.000Z,20.77
2023-05-19T09:30:11.973Z,20.39
2023-05-19T09:31:11.939Z,20.30
2023-05-19T09:32:11.938Z,20.19
2023-05-19T09:33:11.937Z,20.00
2023-05-19T09:34:11.885Z,20.26
2023-05-19T09:35:11.911Z,20.80
2023-05-19T09:36:11.874Z,21.29
2023-05-19T09:37:11.840Z,21.48
2023-05-19T09:38:11.825Z,21.59
2023-05-19T09:39:11.814Z,21.56
2023-05-19T09:40:13.068Z,21.50
2023-05-19T09:41:11.786Z,21.38
2023-05-19T09:42:11.796Z,21.25
2023-05-19T09:43:11.804Z,21.30
2023-05-19T09:44:11.749Z,21.20
2023-05-19T09:45:11.732Z,20.82
2023-05-19T09:46:13.784Z,20.89
2023-05-19T09:47:11.757Z,21.44
2023-05-19T09:48:11.716Z,21.19
2023-05-19T09:49:11.712Z,21.26
2023-05-19T09:50:11.718Z,21.48
2023-05-19T09:51:11.659Z,21.65
2023-05-19T09:52:12.710Z,21.93
2023-05-19T09:53:11.633Z,22.19
2023-05-19T09:54:11.636Z,22.36
2023-05-19T09:55:11.621Z,22.23
2023-05-19T09:56:11.581Z,22.13
2023-05-19T09:57:11.578Z,22.19
2023-05-19T09:58:12.807Z,21.73
2023-05-19T09:59:11.558Z,21.65
2023-05-19T10:00:11.556Z,21.30
2023-05-19T10:01:11.555Z,21.41
2023-05-19T10:02:11.526Z,21.40
2023-05-19T10:03:11.509Z,21.60
2023-05-19T10:04:11.501Z,21.88
2023-05-19T10:05:11.519Z,22.16
2023-05-19T10:06:11.485Z,22.15
2023-05-19T10:07:11.445Z,22.21
2023-05-19T10:08:11.463Z,21.77
2023-05-19T10:09:11.408Z,22.09
2023-05-19T10:10:11.453Z,22.28
2023-05-19T10:11:11.380Z,22.11
2023-05-19T10:12:11.379Z,22.40
2023-05-19T10:13:11.410Z,22.40
2023-05-19T10:14:11.455Z,22.21
2023-05-19T10:15:11.432Z,22.07
2023-05-19T10:16:11.352Z,22.40
2023-05-19T10:17:11.315Z,21.59
2023-05-19T10:18:11.346Z,21.50
2023-05-19T10:19:11.304Z,21.60
2023-05-19T10:20:11.278Z,21.65
2023-05-19T10:21:11.256Z,21.84
2023-05-19T10:22:11.257Z,21.77
2023-05-19T10:23:11.241Z,21.80
2023-05-19T10:24:12.802Z,21.45
2023-05-19T10:25:11.214Z,21.51
2023-05-19T10:26:11.211Z,21.78
2023-05-19T10:27:11.226Z,22.03
2023-05-19T10:28:11.170Z,21.93
2023-05-19T10:29:11.172Z,21.66
2023-05-19T10:30:12.440Z,21.37
2023-05-19T10:31:11.127Z,21.82
2023-05-19T10:32:11.148Z,21.82
2023-05-19T10:33:11.145Z,21.94
2023-05-19T10:34:11.109Z,22.09
2023-05-19T10:35:11.066Z,22.19
2023-05-19T10:36:11.063Z,22.34
2023-05-19T10:37:11.054Z,22.58
2023-05-19T10:38:11.051Z,22.91
2023-05-19T10:39:11.041Z,22.66
2023-05-19T10:40:11.010Z,22.85
2023-05-19T10:41:10.996Z,22.85
2023-05-19T10:42:10.989Z,22.53
2023-05-19T10:43:10.989Z,22.27
2023-05-19T10:44:10.955Z,22.15
2023-05-19T10:45:10.949Z,22.30
2023-05-19T10:46:11.075Z,22.19
2023-05-19T10:47:10.936Z,22.12
2023-05-19T10:48:10.997Z,21.94
2023-05-19T10:49:11.001Z,21.56
2023-05-19T10:50:10.870Z,21.32
2023-05-19T10:51:10.868Z,21.38
2023-05-19T10:52:10.900Z,21.47
2023-05-19T10:53:10.870Z,21.81
2023-05-19T10:54:12.193Z,22.44
2023-05-19T10:55:10.815Z,22.43
2023-05-19T10:56:10.797Z,22.40
2023-05-19T10:57:10.829Z,22.15
2023-05-19T10:58:10.781Z,21.67
2023-05-19T10:59:10.756Z,21.69
2023-05-19T11:00:10.766Z,21.94
2023-05-19T11:01:10.731Z,22.23
2023-05-19T11:02:10.765Z,22.41
2023-05-19T11:03:10.767Z,22.33
2023-05-19T11:04:10.726Z,22.16
2023-05-19T11:05:10.835Z,22.22
2023-05-19T11:06:10.664Z,22.13
2023-05-19T11:07:10.691Z,22.19
2023-05-19T11:08:10.636Z,22.52
2023-05-19T11:09:10.691Z,22.56
2023-05-19T11:10:10.615Z,22.36
2023-05-19T11:11:10.622Z,22.11
2023-05-19T11:12:10.629Z,22.40
2023-05-19T11:13:10.577Z,22.68
2023-05-19T11:14:10.551Z,22.67
2023-05-19T11:15:10.575Z,22.70
2023-05-19T11:16:10.589Z,22.83
2023-05-19T11:17:10.534Z,22.46
2023-05-19T11:18:10.559Z,22.61
2023-05-19T11:19:10.646Z,22.70
2023-05-19T11:20:10.473Z,23.01
2023-05-19T11:21:10.533Z,23.01
2023-05-19T11:22:10.464Z,22.99
2023-05-19T11:23:10.500Z,23.07
2023-05-19T11:24:10.467Z,23.22
2023-05-19T11:25:10.416Z,22.76
2023-05-19T11:26:10.414Z,22.64
2023-05-19T11:27:10.392Z,22.91
2023-05-19T11:28:10.415Z,22.99
2023-05-19T11:29:10.366Z,23.25
2023-05-19T11:30:10.365Z,23.59
2023-05-19T11:31:10.364Z,23.45
2023-05-19T11:32:10.395Z,23.33
2023-05-19T11:33:10.350Z,23.39
2023-05-19T11:34:10.296Z,23.01
2023-05-19T11:35:10.343Z,23.37
2023-05-19T11:36:10.271Z,23.23
2023-05-19T11:37:10.269Z,23.28
2023-05-19T11:38:10.283Z,23.26
2023-05-19T11:39:10.239Z,23.31
2023-05-19T11:40:10.244Z,23.60
2023-05-19T11:41:10.216Z,23.42
2023-05-19T11:42:10.188Z,23.42
2023-05-19T11:43:10.192Z,23.23
2023-05-19T11:44:10.177Z,23.41
2023-05-19T11:45:10.160Z,22.98
2023-05-19T11:46:10.179Z,22.96
2023-05-19T11:47:10.136Z,22.83
2023-05-19T11:48:10.100Z,22.77
2023-05-19T11:49:10.122Z,22.95
2023-05-19T11:50:10.078Z,23.13
2023-05-19T11:51:10.063Z,23.25
2023-05-19T11:52:10.080Z,23.17
2023-05-19T11:53:10.044Z,23.31
2023-05-19T11:54:10.051Z,23.15
2023-05-19T11:55:10.023Z,23.42
2023-05-19T11:56:10.000Z,23.60
2023-05-19T11:57:10.014Z,23.42
2023-05-19T11:58:09.970Z,23.25
2023-05-19T11:59:09.981Z,22.52
2023-05-19T12:00:09.943Z,22.55
2023-05-19T12:01:09.935Z,22.66
2023-05-19T12:02:10.007Z,22.91
2023-05-19T12:03:10.180Z,22.88
2023-05-19T12:04:09.891Z,23.01
2023-05-19T12:06:27.038Z,23.17
2023-05-19T12:07:27.937Z,23.60
2023-05-19T12:08:27.924Z,23.96
2023-05-19T12:09:27.934Z,23.84
2023-05-19T12:10:27.909Z,24.03
2023-05-19T12:11:27.910Z,23.74
2023-05-19T12:12:27.875Z,23.33
2023-05-19T12:13:27.875Z,22.88
2023-05-19T12:14:27.853Z,22.64
2023-05-19T12:15:27.953Z,22.56
2023-05-19T12:16:27.842Z,23.06
2023-05-19T12:17:27.854Z,23.86
2023-05-19T12:18:27.824Z,24.11
2023-05-19T12:19:27.904Z,23.91
2023-05-19T12:20:27.801Z,23.94
2023-05-19T12:21:34.214Z,23.88
2023-05-19T12:22:27.782Z,23.92
2023-05-19T12:23:27.749Z,24.11
2023-05-19T12:24:27.717Z,24.07
2023-05-19T12:25:27.709Z,24.07
2023-05-19T12:26:27.696Z,24.40
2023-05-19T12:27:27.698Z,24.82
2023-05-19T12:28:27.682Z,25.09
2023-05-19T12:29:27.658Z,25.08
2023-05-19T12:30:27.664Z,25.04
2023-05-19T12:31:27.658Z,24.85
2023-05-19T12:32:27.639Z,24.43
2023-05-19T12:33:27.648Z,23.94
2023-05-19T12:34:27.606Z,23.84
2023-05-19T12:35:27.602Z,24.33
2023-05-19T12:36:27.568Z,24.37
2023-05-19T12:37:27.556Z,24.65
2023-05-19T12:38:27.548Z,25.03
2023-05-19T12:39:27.550Z,25.30
2023-05-19T12:40:27.522Z,25.51
2023-05-19T12:41:27.534Z,25.77
2023-05-19T12:42:27.525Z,24.89
2023-05-19T12:43:27.505Z,23.91
2023-05-19T12:44:27.469Z,22.96
2023-05-19T12:45:27.448Z,22.89
2023-05-19T12:46:27.579Z,23.29
2023-05-19T12:47:27.452Z,23.89
2023-05-19T12:48:27.411Z,24.16
2023-05-19T12:49:27.405Z,24.53
2023-05-19T12:50:27.390Z,24.76
2023-05-19T12:51:27.386Z,25.49
2023-05-19T12:52:27.395Z,25.95
2023-05-19T12:53:27.356Z,25.64
2023-05-19T12:54:27.448Z,25.01
2023-05-19T12:55:27.335Z,24.31